AIRPORT_AIRPORT_METAR
METAR FOR LFKC
ADDS - METARS form results

(0029 UTC 06 December 2019)
Data provider http://aviationweather.gov/metar/data/
 
METAR text: LFKC 060000Z AUTO VRB02KT 9999 FEW082 09/08 Q1022
Conditions at: LFKC (CALVI/ST. CATHER, FR) observed 0000 UTC 06 December 2019
Temperature: 9.0°C (48°F)
Dewpoint: 8.0°C (46°F) [RH = 93%]
Pressure (altimeter): 30.18 inches Hg (1022.0 mb)
Winds: variable direction winds at 2 MPH (2 knots; 1.0 m/s)
Visibility: 6 or more miles (10+ km)
Ceiling: at least 12,000 feet AGL
Clouds: few clouds at 8200 feet AGL
Weather: no significant weather observed at this time

METAR text: LFKC 052330Z AUTO 19005KT 9999 FEW084 10/08 Q1022
Conditions at: LFKC (CALVI/ST. CATHER, FR) observed 2330 UTC 05 December 2019
Temperature: 10.0°C (50°F)
Dewpoint: 8.0°C (46°F) [RH = 87%]
Pressure (altimeter): 30.18 inches Hg (1022.0 mb)
Winds: from the S (190 degrees) at 6 MPH (5 knots; 2.6 m/s)
Visibility: 6 or more miles (10+ km)
Ceiling: at least 12,000 feet AGL
Clouds: few clouds at 8400 feet AGL
Weather: no significant weather observed at this time

 AIRPORT_AIRPORT_MAP

 AIRPORT_RUNWAY_INFO
AIRPORT_RUNWAY 18 AIRPORT_RUNWAY_LENGTH 7579 ft AIRPORT_RUNWAY_WIDTH 131 ft
AIRPORT_RUNWAY_ELEVATION 63 ft AIRPORT_RUNWAY_THRESHOLD 0 ft AIRPORT_RUNWAY_HEADING 179
AIRPORT_RUNWAY 36 AIRPORT_RUNWAY_LENGTH 7579 ft AIRPORT_RUNWAY_WIDTH 131 ft
AIRPORT_RUNWAY_ELEVATION 198 ft AIRPORT_RUNWAY_THRESHOLD 656 ft AIRPORT_RUNWAY_HEADING 359

 AIRPORT_AIRPORT_FREQUENCIES
AIRPORT_AIRPORT_NAVAIDS_TYPE ATIS AIRPORT_AIRPORT_NAVAIDS_NAME CALVI ATIS AIRPORT_AIRPORT_NAVAIDS_FREQ 131.175 MHZ
AIRPORT_AIRPORT_NAVAIDS_TYPE GND AIRPORT_AIRPORT_NAVAIDS_NAME CALVI GND AIRPORT_AIRPORT_NAVAIDS_FREQ 121.7 MHZ
AIRPORT_AIRPORT_NAVAIDS_TYPE TWR AIRPORT_AIRPORT_NAVAIDS_NAME CALVI TWR AIRPORT_AIRPORT_NAVAIDS_FREQ 120.8 MHZ

 AIRPORT_AIRPORT_NAVAIDS
AIRPORT_AIRPORT_NAVAIDS_TYPE NDB AIRPORT_AIRPORT_NAVAIDS_NAME Calvi AIRPORT_AIRPORT_NAVAIDS_FREQ 375 KHZ



Copyright © 2005-2019 - Virtuel Air Alsace - Tous droits réservés